AUA673 EIDW-LOWW
Flight info
| Callsign | AUA673 |
|---|---|
| Flight time | N/A |
| Altitude | 41000 |
| Route | ENDEQ3J ENDEQ Q36 ALAVA Z195 MALUD UL975 WAL M16 DOLAS L603 LAMSO DCT NOMKA DCT TALEG L620 PIKIB DCT OMELO DCT EVIKU DCT BITSI DCT MIKOV MIKOV8W |
| Aircraft | A343/H-SDE2E3FGHIJ4J5M1RWXY/LB1D1 |
Departure
| Time | 2026-05-06 16:58 |
|---|---|
| Airport | Dublin Airport (EIDW) |
Arrival
| Time | N/A |
|---|---|
| Airport | Vienna International Airport (LOWW) |
| Time | Latitude | Longitude | Altitude | Speed | Heading |
|---|---|---|---|---|---|
| 2026-05-06 16:36 | 53.42870 | -6.24826 | 215 ft | 0 kts | 134° |
| 2026-05-06 16:48 | 53.42877 | -6.24838 | 215 ft | 4 kts | 135° |
| 2026-05-06 16:48 | 53.42893 | -6.24863 | 224 ft | 4 kts | 152° |
| 2026-05-06 16:49 | 53.42916 | -6.24871 | 223 ft | 4 kts | 208° |
| 2026-05-06 16:49 | 53.42935 | -6.24842 | 225 ft | 4 kts | 232° |
| 2026-05-06 16:49 | 53.42943 | -6.24824 | 224 ft | 0 kts | 228° |
| 2026-05-06 16:52 | 53.42942 | -6.24826 | 223 ft | 2 kts | 228° |
| 2026-05-06 16:52 | 53.42911 | -6.24884 | 225 ft | 11 kts | 228° |
| 2026-05-06 16:52 | 53.42846 | -6.25000 | 223 ft | 16 kts | 224° |
| 2026-05-06 16:52 | 53.42759 | -6.25121 | 225 ft | 17 kts | 224° |
| 2026-05-06 16:53 | 53.42668 | -6.25277 | 225 ft | 19 kts | 225° |
| 2026-05-06 16:53 | 53.42570 | -6.25444 | 222 ft | 21 kts | 225° |
| 2026-05-06 16:53 | 53.42468 | -6.25621 | 224 ft | 22 kts | 226° |
| 2026-05-06 16:53 | 53.42359 | -6.25805 | 222 ft | 23 kts | 226° |
| 2026-05-06 16:54 | 53.42263 | -6.26025 | 220 ft | 24 kts | 253° |
| 2026-05-06 16:54 | 53.42264 | -6.26256 | 225 ft | 14 kts | 275° |
| 2026-05-06 16:54 | 53.42274 | -6.26431 | 221 ft | 16 kts | 275° |
| 2026-05-06 16:54 | 53.42285 | -6.26630 | 215 ft | 17 kts | 275° |
| 2026-05-06 16:55 | 53.42297 | -6.26848 | 215 ft | 20 kts | 275° |
| 2026-05-06 16:55 | 53.42310 | -6.27088 | 222 ft | 22 kts | 275° |
| 2026-05-06 16:55 | 53.42324 | -6.27350 | 220 ft | 22 kts | 275° |
| 2026-05-06 16:55 | 53.42339 | -6.27613 | 223 ft | 24 kts | 275° |
| 2026-05-06 16:56 | 53.42354 | -6.27897 | 221 ft | 25 kts | 275° |
| 2026-05-06 16:56 | 53.42371 | -6.28201 | 224 ft | 27 kts | 275° |
| 2026-05-06 16:56 | 53.42389 | -6.28518 | 215 ft | 25 kts | 275° |
| 2026-05-06 16:56 | 53.42405 | -6.28808 | 215 ft | 24 kts | 275° |
| 2026-05-06 16:57 | 53.42394 | -6.29027 | 225 ft | 15 kts | 235° |
| 2026-05-06 16:57 | 53.42294 | -6.29071 | 216 ft | 16 kts | 172° |
| 2026-05-06 16:57 | 53.42238 | -6.28929 | 221 ft | 14 kts | 95° |
| 2026-05-06 16:57 | 53.42237 | -6.28916 | 223 ft | 0 kts | 95° |
| 2026-05-06 16:58 | 53.42212 | -6.28463 | 222 ft | 78 kts | 95° |
| 2026-05-06 16:58 | 53.42140 | -6.27174 | 219 ft | 141 kts | 96° |
| 2026-05-06 16:58 | 53.42062 | -6.25408 | 754 ft | 157 kts | 95° |
| 2026-05-06 16:58 | 53.41963 | -6.23488 | 1338 ft | 173 kts | 97° |
| 2026-05-06 16:59 | 53.41836 | -6.21359 | 1956 ft | 193 kts | 98° |
| 2026-05-06 16:59 | 53.41695 | -6.19003 | 2458 ft | 220 kts | 97° |
| 2026-05-06 16:59 | 53.41539 | -6.16273 | 3082 ft | 246 kts | 96° |
| 2026-05-06 16:59 | 53.41375 | -6.13324 | 4107 ft | 255 kts | 96° |
| 2026-05-06 17:00 | 53.41208 | -6.10309 | 5148 ft | 264 kts | 95° |
| 2026-05-06 17:00 | 53.41038 | -6.07249 | 6208 ft | 271 kts | 95° |
| 2026-05-06 17:00 | 53.41008 | -6.04049 | 7200 ft | 278 kts | 86° |
| 2026-05-06 17:00 | 53.41200 | -6.00746 | 8260 ft | 283 kts | 83° |
| 2026-05-06 17:01 | 53.41427 | -5.97437 | 9323 ft | 288 kts | 83° |
| 2026-05-06 17:01 | 53.41655 | -5.94071 | 10296 ft | 295 kts | 83° |
| 2026-05-06 17:01 | 53.41889 | -5.90537 | 10793 ft | 317 kts | 84° |
| 2026-05-06 17:01 | 53.42137 | -5.86738 | 11250 ft | 336 kts | 84° |
| 2026-05-06 17:02 | 53.42391 | -5.82782 | 11977 ft | 347 kts | 84° |
| 2026-05-06 17:02 | 53.42654 | -5.78714 | 12753 ft | 354 kts | 83° |
| 2026-05-06 17:02 | 53.42936 | -5.74568 | 13584 ft | 361 kts | 83° |
| 2026-05-06 17:02 | 53.43222 | -5.70343 | 14359 ft | 367 kts | 83° |
| 2026-05-06 17:03 | 53.43510 | -5.66057 | 15167 ft | 372 kts | 83° |
| 2026-05-06 17:03 | 53.43798 | -5.61736 | 16004 ft | 375 kts | 83° |
| 2026-05-06 17:03 | 53.44087 | -5.57363 | 16850 ft | 379 kts | 83° |
| 2026-05-06 17:03 | 53.44378 | -5.52941 | 17701 ft | 383 kts | 83° |
| 2026-05-06 17:04 | 53.44554 | -5.48456 | 18468 ft | 389 kts | 89° |
| 2026-05-06 17:04 | 53.44549 | -5.43870 | 19026 ft | 398 kts | 91° |
| 2026-05-06 17:04 | 53.44443 | -5.39200 | 19656 ft | 403 kts | 92° |
| 2026-05-06 17:04 | 53.44293 | -5.34485 | 20349 ft | 407 kts | 93° |
| 2026-05-06 17:05 | 53.44133 | -5.29724 | 21044 ft | 411 kts | 92° |
| 2026-05-06 17:05 | 53.43978 | -5.24920 | 21728 ft | 415 kts | 92° |
| 2026-05-06 17:05 | 53.43833 | -5.20062 | 22409 ft | 418 kts | 92° |
| 2026-05-06 17:05 | 53.43695 | -5.15170 | 23085 ft | 422 kts | 91° |
| 2026-05-06 17:06 | 53.43555 | -5.10234 | 23692 ft | 426 kts | 92° |
| 2026-05-06 17:06 | 53.43400 | -5.05246 | 24217 ft | 430 kts | 92° |
| 2026-05-06 17:06 | 53.43237 | -5.00227 | 24774 ft | 433 kts | 92° |
| 2026-05-06 17:06 | 53.43070 | -4.95171 | 25295 ft | 436 kts | 92° |
| 2026-05-06 17:07 | 53.42900 | -4.90078 | 25822 ft | 439 kts | 92° |
| 2026-05-06 17:07 | 53.42729 | -4.84952 | 26339 ft | 442 kts | 91° |
| 2026-05-06 17:07 | 53.42558 | -4.79794 | 26842 ft | 444 kts | 91° |
| 2026-05-06 17:07 | 53.42384 | -4.74606 | 27333 ft | 447 kts | 91° |
| 2026-05-06 17:08 | 53.42208 | -4.69387 | 27815 ft | 450 kts | 91° |
| 2026-05-06 17:08 | 53.42027 | -4.64129 | 28272 ft | 453 kts | 91° |
| 2026-05-06 17:08 | 53.41844 | -4.58836 | 28763 ft | 456 kts | 91° |
| 2026-05-06 17:08 | 53.41657 | -4.53523 | 29209 ft | 458 kts | 91° |
| 2026-05-06 17:09 | 53.41466 | -4.48177 | 29658 ft | 461 kts | 91° |
| 2026-05-06 17:09 | 53.41272 | -4.42806 | 30084 ft | 463 kts | 91° |
| 2026-05-06 17:09 | 53.41075 | -4.37404 | 30437 ft | 466 kts | 91° |
| 2026-05-06 17:09 | 53.40874 | -4.31972 | 30783 ft | 468 kts | 91° |
| 2026-05-06 17:10 | 53.40669 | -4.26510 | 31135 ft | 471 kts | 91° |
| 2026-05-06 17:10 | 53.40461 | -4.21022 | 31471 ft | 473 kts | 91° |
| 2026-05-06 17:10 | 53.40250 | -4.15528 | 31900 ft | 473 kts | 91° |
| 2026-05-06 17:10 | 53.40035 | -4.10033 | 32399 ft | 471 kts | 91° |
| 2026-05-06 17:11 | 53.39819 | -4.04551 | 32776 ft | 472 kts | 91° |
| 2026-05-06 17:11 | 53.39637 | -3.99062 | 33190 ft | 471 kts | 88° |
| 2026-05-06 17:11 | 53.39746 | -3.93609 | 33667 ft | 468 kts | 84° |
| 2026-05-06 17:11 | 53.39966 | -3.88176 | 34104 ft | 466 kts | 83° |
| 2026-05-06 17:12 | 53.40133 | -3.84592 | 34334 ft | 466 kts | 83° |
| 2026-05-06 17:12 | 53.40404 | -3.79184 | 34630 ft | 467 kts | 83° |
| 2026-05-06 17:12 | 53.40684 | -3.73758 | 34902 ft | 468 kts | 83° |
| 2026-05-06 17:12 | 53.40964 | -3.68317 | 35194 ft | 469 kts | 83° |
| 2026-05-06 17:13 | 53.41208 | -3.62867 | 35473 ft | 471 kts | 86° |
| 2026-05-06 17:13 | 53.41153 | -3.57373 | 35754 ft | 473 kts | 91° |
| 2026-05-06 17:13 | 53.40972 | -3.51839 | 35948 ft | 476 kts | 92° |
| 2026-05-06 17:13 | 53.40745 | -3.46302 | 36233 ft | 477 kts | 93° |
| 2026-05-06 17:14 | 53.40494 | -3.40759 | 36535 ft | 477 kts | 93° |
| 2026-05-06 17:14 | 53.40233 | -3.35214 | 36829 ft | 478 kts | 93° |
| 2026-05-06 17:14 | 53.39969 | -3.29670 | 37100 ft | 478 kts | 94° |
| 2026-05-06 17:14 | 53.39705 | -3.24115 | 37377 ft | 479 kts | 94° |
| 2026-05-06 17:15 | 53.39441 | -3.18547 | 37663 ft | 479 kts | 94° |
| 2026-05-06 17:15 | 53.39177 | -3.12978 | 37925 ft | 480 kts | 94° |
| 2026-05-06 17:15 | 53.38935 | -3.07409 | 38200 ft | 480 kts | 93° |
| 2026-05-06 17:15 | 53.38725 | -3.01812 | 38423 ft | 482 kts | 93° |
| 2026-05-06 17:16 | 53.38526 | -2.96194 | 38658 ft | 483 kts | 93° |
| 2026-05-06 17:16 | 53.38326 | -2.90577 | 38886 ft | 483 kts | 93° |
| 2026-05-06 17:16 | 53.38118 | -2.84888 | 39110 ft | 483 kts | 93° |
| 2026-05-06 17:16 | 53.37909 | -2.79347 | 39315 ft | 483 kts | 93° |
| 2026-05-06 17:17 | 53.37691 | -2.73738 | 39533 ft | 483 kts | 93° |
| 2026-05-06 17:17 | 53.37468 | -2.68124 | 39754 ft | 483 kts | 94° |
| 2026-05-06 17:17 | 53.37238 | -2.62432 | 39965 ft | 483 kts | 94° |
| 2026-05-06 17:17 | 53.37008 | -2.56816 | 40180 ft | 483 kts | 94° |
| 2026-05-06 17:18 | 53.36775 | -2.51204 | 40380 ft | 484 kts | 94° |
| 2026-05-06 17:18 | 53.36540 | -2.45591 | 40577 ft | 484 kts | 94° |
| 2026-05-06 17:18 | 53.36302 | -2.39970 | 40779 ft | 484 kts | 94° |
| 2026-05-06 17:18 | 53.36061 | -2.34347 | 40967 ft | 484 kts | 94° |
| 2026-05-06 17:19 | 53.35811 | -2.28717 | 41016 ft | 488 kts | 95° |
| 2026-05-06 17:19 | 53.34820 | -2.17378 | 41023 ft | 494 kts | 99° |
| 2026-05-06 17:20 | 53.33672 | -2.06089 | 41022 ft | 491 kts | 100° |
| 2026-05-06 17:20 | 53.32493 | -1.94848 | 41025 ft | 491 kts | 100° |
| 2026-05-06 17:21 | 53.31309 | -1.83606 | 41029 ft | 491 kts | 100° |
| 2026-05-06 17:21 | 53.30119 | -1.72357 | 41031 ft | 491 kts | 100° |
| 2026-05-06 17:22 | 53.28923 | -1.61122 | 41044 ft | 491 kts | 100° |
| 2026-05-06 17:22 | 53.27711 | -1.49822 | 41033 ft | 491 kts | 101° |
| 2026-05-06 17:23 | 53.26489 | -1.38603 | 41033 ft | 491 kts | 101° |
| 2026-05-06 17:23 | 53.25256 | -1.27379 | 41043 ft | 491 kts | 101° |
| 2026-05-06 17:24 | 53.24015 | -1.16164 | 41043 ft | 491 kts | 101° |
| 2026-05-06 17:24 | 53.22757 | -1.04895 | 41044 ft | 491 kts | 101° |
| 2026-05-06 17:25 | 53.21488 | -0.93633 | 41049 ft | 491 kts | 101° |
| 2026-05-06 17:25 | 53.20219 | -0.82442 | 41049 ft | 491 kts | 101° |
| 2026-05-06 17:26 | 53.18939 | -0.71271 | 41051 ft | 491 kts | 101° |
| 2026-05-06 17:26 | 53.17643 | -0.60095 | 41050 ft | 491 kts | 101° |
| 2026-05-06 17:27 | 53.16338 | -0.48927 | 41047 ft | 491 kts | 102° |
| 2026-05-06 17:27 | 53.15025 | -0.37774 | 41047 ft | 491 kts | 102° |
| 2026-05-06 17:28 | 53.13702 | -0.26626 | 41047 ft | 491 kts | 102° |
| 2026-05-06 17:28 | 53.12369 | -0.15490 | 41047 ft | 491 kts | 102° |
| 2026-05-06 17:29 | 53.11023 | -0.04345 | 41047 ft | 491 kts | 102° |
| 2026-05-06 17:29 | 53.09668 | 0.06782 | 41038 ft | 491 kts | 102° |
| 2026-05-06 17:30 | 53.08304 | 0.17897 | 41040 ft | 490 kts | 102° |
| 2026-05-06 17:30 | 53.06930 | 0.29002 | 41028 ft | 490 kts | 102° |
| 2026-05-06 17:31 | 53.05544 | 0.40107 | 41025 ft | 490 kts | 102° |
| 2026-05-06 17:31 | 53.04148 | 0.51205 | 41019 ft | 490 kts | 102° |
| 2026-05-06 17:32 | 53.02742 | 0.62294 | 41009 ft | 491 kts | 103° |
| 2026-05-06 17:32 | 53.01323 | 0.73398 | 41010 ft | 492 kts | 103° |
| 2026-05-06 17:33 | 52.99893 | 0.84501 | 41002 ft | 491 kts | 103° |
| 2026-05-06 17:33 | 52.98456 | 0.95568 | 41002 ft | 490 kts | 103° |
| 2026-05-06 17:34 | 52.97046 | 1.06631 | 40997 ft | 490 kts | 102° |
| 2026-05-06 17:34 | 52.95780 | 1.17750 | 41001 ft | 491 kts | 101° |
| 2026-05-06 17:35 | 52.94523 | 1.28899 | 41003 ft | 492 kts | 102° |
| 2026-05-06 17:35 | 52.93234 | 1.40024 | 41002 ft | 491 kts | 102° |
| 2026-05-06 17:36 | 52.91258 | 1.56691 | 41000 ft | 491 kts | 102° |
| 2026-05-06 17:36 | 52.89926 | 1.67796 | 40996 ft | 491 kts | 102° |
| 2026-05-06 17:37 | 52.88585 | 1.78887 | 40998 ft | 491 kts | 102° |
| 2026-05-06 17:37 | 52.87233 | 1.89985 | 40993 ft | 491 kts | 102° |
| 2026-05-06 17:38 | 52.85877 | 2.01028 | 40991 ft | 491 kts | 103° |
| 2026-05-06 17:38 | 52.84515 | 2.12022 | 40990 ft | 491 kts | 103° |
| 2026-05-06 17:39 | 52.83126 | 2.23149 | 40983 ft | 491 kts | 103° |
| 2026-05-06 17:39 | 52.81735 | 2.34196 | 40982 ft | 491 kts | 103° |
| 2026-05-06 17:40 | 52.80344 | 2.45164 | 40983 ft | 491 kts | 103° |
| 2026-05-06 17:40 | 52.78935 | 2.56194 | 40981 ft | 491 kts | 103° |
| 2026-05-06 17:41 | 52.77503 | 2.67299 | 40977 ft | 491 kts | 103° |
| 2026-05-06 17:41 | 52.76081 | 2.78239 | 40977 ft | 491 kts | 103° |
| 2026-05-06 17:42 | 52.74644 | 2.89260 | 40972 ft | 491 kts | 104° |
| 2026-05-06 17:42 | 52.73189 | 3.00264 | 40971 ft | 491 kts | 104° |
| 2026-05-06 17:43 | 52.71697 | 3.11337 | 40959 ft | 491 kts | 104° |
| 2026-05-06 17:43 | 52.70182 | 3.22331 | 40952 ft | 492 kts | 104° |
| 2026-05-06 17:44 | 52.68662 | 3.33311 | 40955 ft | 492 kts | 104° |
| 2026-05-06 17:44 | 52.67424 | 3.42221 | 40952 ft | 492 kts | 104° |
| 2026-05-06 17:45 | 52.65830 | 3.53639 | 40953 ft | 492 kts | 105° |
| 2026-05-06 17:45 | 52.64288 | 3.64603 | 40950 ft | 492 kts | 105° |
| 2026-05-06 17:46 | 52.62735 | 3.75564 | 40949 ft | 492 kts | 105° |
| 2026-05-06 17:46 | 52.61170 | 3.86522 | 40950 ft | 492 kts | 105° |
| 2026-05-06 17:47 | 52.59596 | 3.97474 | 40947 ft | 492 kts | 105° |
| 2026-05-06 17:47 | 52.58012 | 4.08411 | 40940 ft | 491 kts | 105° |
| 2026-05-06 17:48 | 52.56427 | 4.19283 | 40943 ft | 488 kts | 105° |
| 2026-05-06 17:48 | 52.54839 | 4.30097 | 40937 ft | 486 kts | 105° |
| 2026-05-06 17:49 | 52.53046 | 4.42214 | 40931 ft | 486 kts | 105° |
| 2026-05-06 17:49 | 52.51690 | 4.51318 | 40930 ft | 486 kts | 105° |
| 2026-05-06 17:50 | 52.50076 | 4.62091 | 40926 ft | 486 kts | 105° |
| 2026-05-06 17:50 | 52.48449 | 4.72874 | 40916 ft | 486 kts | 105° |
| 2026-05-06 17:51 | 52.46814 | 4.83637 | 40914 ft | 486 kts | 106° |
| 2026-05-06 17:51 | 52.45171 | 4.94380 | 40914 ft | 486 kts | 106° |
| 2026-05-06 17:52 | 52.43516 | 5.05132 | 40914 ft | 486 kts | 106° |
| 2026-05-06 17:52 | 52.41851 | 5.15876 | 40915 ft | 486 kts | 106° |
| 2026-05-06 17:53 | 52.40164 | 5.26685 | 40910 ft | 486 kts | 106° |
| 2026-05-06 17:53 | 52.38471 | 5.37472 | 40912 ft | 486 kts | 106° |
| 2026-05-06 17:54 | 52.36787 | 5.48126 | 40905 ft | 486 kts | 106° |
| 2026-05-06 17:54 | 52.35083 | 5.58837 | 40912 ft | 486 kts | 106° |
| 2026-05-06 17:55 | 52.33370 | 5.69538 | 40911 ft | 486 kts | 107° |
| 2026-05-06 17:55 | 52.31636 | 5.80297 | 40912 ft | 486 kts | 107° |
| 2026-05-06 17:56 | 52.29871 | 5.91182 | 40912 ft | 486 kts | 107° |
| 2026-05-06 17:56 | 52.28126 | 6.01875 | 40908 ft | 486 kts | 107° |
| 2026-05-06 17:57 | 52.26375 | 6.12535 | 40913 ft | 486 kts | 107° |
| 2026-05-06 17:57 | 52.24617 | 6.23171 | 40909 ft | 486 kts | 107° |
| 2026-05-06 17:58 | 52.22848 | 6.33808 | 40903 ft | 486 kts | 107° |
| 2026-05-06 17:58 | 52.21069 | 6.44438 | 40895 ft | 486 kts | 107° |
| 2026-05-06 17:59 | 52.19282 | 6.55051 | 40891 ft | 485 kts | 107° |
| 2026-05-06 17:59 | 52.17486 | 6.65655 | 40893 ft | 485 kts | 107° |
| 2026-05-06 18:00 | 52.15681 | 6.76244 | 40882 ft | 485 kts | 108° |
| 2026-05-06 18:00 | 52.13866 | 6.86828 | 40882 ft | 485 kts | 108° |
| 2026-05-06 18:01 | 52.12041 | 6.97409 | 40876 ft | 485 kts | 108° |
| 2026-05-06 18:01 | 52.10209 | 7.07963 | 40880 ft | 485 kts | 108° |
| 2026-05-06 18:02 | 52.08366 | 7.18523 | 40878 ft | 485 kts | 108° |
| 2026-05-06 18:02 | 52.06514 | 7.29067 | 40884 ft | 485 kts | 108° |
| 2026-05-06 18:03 | 52.04653 | 7.39602 | 40870 ft | 485 kts | 108° |
| 2026-05-06 18:03 | 52.02785 | 7.50113 | 40882 ft | 485 kts | 108° |
| 2026-05-06 18:04 | 52.00905 | 7.60636 | 40888 ft | 485 kts | 108° |
| 2026-05-06 18:04 | 51.99018 | 7.71132 | 40882 ft | 485 kts | 108° |
| 2026-05-06 18:05 | 51.97118 | 7.81637 | 40884 ft | 485 kts | 109° |
| 2026-05-06 18:05 | 51.95212 | 7.92118 | 40872 ft | 485 kts | 109° |
| 2026-05-06 18:06 | 51.93296 | 8.02593 | 40862 ft | 485 kts | 109° |
| 2026-05-06 18:06 | 51.91370 | 8.13065 | 40863 ft | 485 kts | 109° |
| 2026-05-06 18:07 | 51.89434 | 8.23528 | 40856 ft | 485 kts | 109° |
| 2026-05-06 18:07 | 51.87491 | 8.33975 | 40853 ft | 485 kts | 109° |
| 2026-05-06 18:08 | 51.85538 | 8.44416 | 40842 ft | 485 kts | 109° |
| 2026-05-06 18:08 | 51.83572 | 8.54861 | 40838 ft | 485 kts | 109° |
| 2026-05-06 18:09 | 51.81610 | 8.65234 | 40832 ft | 485 kts | 109° |
| 2026-05-06 18:09 | 51.79614 | 8.75729 | 40832 ft | 485 kts | 110° |
| 2026-05-06 18:10 | 51.77622 | 8.86143 | 40828 ft | 486 kts | 110° |
| 2026-05-06 18:10 | 51.75619 | 8.96552 | 40827 ft | 486 kts | 110° |
| 2026-05-06 18:11 | 51.73946 | 9.05207 | 40824 ft | 486 kts | 110° |
| 2026-05-06 18:11 | 51.71585 | 9.17357 | 40808 ft | 486 kts | 110° |
| 2026-05-06 18:12 | 51.69555 | 9.27741 | 40819 ft | 486 kts | 110° |
| 2026-05-06 18:12 | 51.67514 | 9.38124 | 40804 ft | 486 kts | 110° |
| 2026-05-06 18:13 | 51.65464 | 9.48494 | 40802 ft | 486 kts | 110° |
| 2026-05-06 18:13 | 51.63409 | 9.58840 | 40811 ft | 485 kts | 110° |
| 2026-05-06 18:14 | 51.61349 | 9.69155 | 40798 ft | 485 kts | 111° |
| 2026-05-06 18:14 | 51.59273 | 9.79496 | 40812 ft | 484 kts | 111° |
| 2026-05-06 18:15 | 51.57194 | 9.89793 | 40798 ft | 484 kts | 111° |
| 2026-05-06 18:15 | 51.55108 | 10.00072 | 40802 ft | 484 kts | 111° |
| 2026-05-06 18:16 | 51.53013 | 10.10341 | 40803 ft | 484 kts | 111° |
| 2026-05-06 18:16 | 51.50895 | 10.20672 | 40800 ft | 484 kts | 111° |
| 2026-05-06 18:17 | 51.48782 | 10.30925 | 40793 ft | 484 kts | 111° |
| 2026-05-06 18:17 | 51.46661 | 10.41164 | 40795 ft | 484 kts | 111° |
| 2026-05-06 18:18 | 51.44536 | 10.51372 | 40793 ft | 484 kts | 111° |
| 2026-05-06 18:19 | 51.42434 | 10.63823 | 40785 ft | 486 kts | 106° |
| 2026-05-06 18:19 | 51.39803 | 10.81418 | 40783 ft | 486 kts | 107° |
| 2026-05-06 18:20 | 51.38142 | 10.91909 | 40782 ft | 486 kts | 108° |
| 2026-05-06 18:20 | 51.36448 | 11.02363 | 40782 ft | 485 kts | 108° |
| 2026-05-06 18:21 | 51.34741 | 11.12810 | 40778 ft | 485 kts | 108° |
| 2026-05-06 18:21 | 51.33035 | 11.23210 | 40783 ft | 484 kts | 108° |
| 2026-05-06 18:22 | 51.31318 | 11.33616 | 40782 ft | 483 kts | 108° |
| 2026-05-06 18:22 | 51.29597 | 11.43990 | 40783 ft | 483 kts | 108° |
| 2026-05-06 18:23 | 51.27854 | 11.54430 | 40773 ft | 483 kts | 108° |
| 2026-05-06 18:23 | 51.26120 | 11.64756 | 40779 ft | 484 kts | 108° |
| 2026-05-06 18:24 | 51.24367 | 11.75132 | 40779 ft | 484 kts | 108° |
| 2026-05-06 18:24 | 51.22603 | 11.85511 | 40779 ft | 484 kts | 108° |
| 2026-05-06 18:25 | 51.20832 | 11.95869 | 40776 ft | 484 kts | 108° |
| 2026-05-06 18:25 | 51.19049 | 12.06234 | 40774 ft | 485 kts | 109° |
| 2026-05-06 18:26 | 51.17244 | 12.16668 | 40771 ft | 485 kts | 109° |
| 2026-05-06 18:26 | 51.15442 | 12.27020 | 40757 ft | 485 kts | 109° |
| 2026-05-06 18:27 | 51.13632 | 12.37361 | 40754 ft | 485 kts | 109° |
| 2026-05-06 18:27 | 51.11813 | 12.47696 | 40748 ft | 485 kts | 109° |
| 2026-05-06 18:28 | 51.09978 | 12.58054 | 40750 ft | 486 kts | 109° |
| 2026-05-06 18:28 | 51.08151 | 12.68325 | 40751 ft | 486 kts | 110° |
| 2026-05-06 18:29 | 51.06283 | 12.78660 | 40755 ft | 486 kts | 110° |
| 2026-05-06 18:29 | 51.04405 | 12.88974 | 40748 ft | 486 kts | 110° |
| 2026-05-06 18:30 | 51.02506 | 12.99361 | 40765 ft | 487 kts | 110° |
| 2026-05-06 18:30 | 51.00623 | 13.09618 | 40772 ft | 487 kts | 110° |
| 2026-05-06 18:31 | 50.98705 | 13.20010 | 40767 ft | 487 kts | 110° |
| 2026-05-06 18:31 | 50.96793 | 13.30307 | 40765 ft | 487 kts | 110° |
| 2026-05-06 18:32 | 50.94906 | 13.40616 | 40767 ft | 486 kts | 110° |
| 2026-05-06 18:32 | 50.93083 | 13.50917 | 40769 ft | 485 kts | 109° |
| 2026-05-06 18:33 | 50.91198 | 13.61188 | 40769 ft | 485 kts | 110° |
| 2026-05-06 18:33 | 50.89258 | 13.71419 | 40767 ft | 485 kts | 111° |
| 2026-05-06 18:34 | 50.87315 | 13.81655 | 40762 ft | 485 kts | 111° |
| 2026-05-06 18:34 | 50.85337 | 13.91930 | 40759 ft | 484 kts | 113° |
| 2026-05-06 18:35 | 50.82341 | 14.01265 | 40759 ft | 472 kts | 131° |
| 2026-05-06 18:35 | 50.77908 | 14.08756 | 40756 ft | 465 kts | 141° |
| 2026-05-06 18:36 | 50.73134 | 14.15654 | 40743 ft | 465 kts | 142° |
| 2026-05-06 18:36 | 50.68319 | 14.22463 | 40747 ft | 465 kts | 142° |
| 2026-05-06 18:37 | 50.64332 | 14.28130 | 40738 ft | 464 kts | 142° |
| 2026-05-06 18:37 | 50.61144 | 14.32684 | 40385 ft | 462 kts | 142° |
| 2026-05-06 18:37 | 50.58754 | 14.36098 | 40051 ft | 463 kts | 142° |
| 2026-05-06 18:38 | 50.56342 | 14.39541 | 39719 ft | 464 kts | 142° |
| 2026-05-06 18:38 | 50.53949 | 14.42954 | 39386 ft | 463 kts | 142° |
| 2026-05-06 18:38 | 50.51537 | 14.46390 | 39071 ft | 462 kts | 143° |
| 2026-05-06 18:38 | 50.49164 | 14.49765 | 38753 ft | 461 kts | 143° |
| 2026-05-06 18:39 | 50.46786 | 14.53143 | 38417 ft | 459 kts | 143° |
| 2026-05-06 18:39 | 50.44424 | 14.56524 | 38033 ft | 458 kts | 142° |
| 2026-05-06 18:39 | 50.42120 | 14.59968 | 37643 ft | 458 kts | 141° |
| 2026-05-06 18:40 | 50.37564 | 14.66962 | 36853 ft | 459 kts | 141° |
| 2026-05-06 18:40 | 50.35283 | 14.70466 | 36485 ft | 460 kts | 141° |
| 2026-05-06 18:40 | 50.32990 | 14.73966 | 36115 ft | 460 kts | 141° |
| 2026-05-06 18:40 | 50.30687 | 14.77462 | 35739 ft | 461 kts | 141° |
| 2026-05-06 18:41 | 50.28377 | 14.80950 | 35325 ft | 462 kts | 142° |
| 2026-05-06 18:41 | 50.26029 | 14.84486 | 34924 ft | 463 kts | 142° |
| 2026-05-06 18:41 | 50.23732 | 14.87936 | 34506 ft | 464 kts | 142° |
| 2026-05-06 18:41 | 50.21399 | 14.91434 | 34117 ft | 466 kts | 142° |
| 2026-05-06 18:42 | 50.19032 | 14.94977 | 33721 ft | 467 kts | 142° |
| 2026-05-06 18:42 | 50.17442 | 14.97355 | 33377 ft | 468 kts | 142° |
| 2026-05-06 18:42 | 50.15118 | 15.00829 | 32861 ft | 469 kts | 142° |
| 2026-05-06 18:42 | 50.12729 | 15.04393 | 32338 ft | 470 kts | 142° |
| 2026-05-06 18:43 | 50.10392 | 15.07875 | 31844 ft | 471 kts | 142° |
| 2026-05-06 18:43 | 50.07991 | 15.11449 | 31344 ft | 472 kts | 142° |
| 2026-05-06 18:43 | 50.05642 | 15.14941 | 30907 ft | 473 kts | 141° |
| 2026-05-06 18:43 | 50.03228 | 15.18523 | 30760 ft | 475 kts | 141° |
| 2026-05-06 18:44 | 50.00836 | 15.22068 | 30735 ft | 475 kts | 142° |
| 2026-05-06 18:44 | 49.96047 | 15.29155 | 30748 ft | 475 kts | 142° |
| 2026-05-06 18:45 | 49.91258 | 15.36219 | 30746 ft | 475 kts | 142° |
| 2026-05-06 18:45 | 49.86466 | 15.43267 | 30743 ft | 475 kts | 142° |
| 2026-05-06 18:46 | 49.81668 | 15.50304 | 30740 ft | 474 kts | 143° |
| 2026-05-06 18:46 | 49.76845 | 15.57356 | 30732 ft | 473 kts | 143° |
| 2026-05-06 18:47 | 49.72078 | 15.64301 | 30736 ft | 475 kts | 143° |
| 2026-05-06 18:47 | 49.67271 | 15.71286 | 30733 ft | 475 kts | 143° |
| 2026-05-06 18:47 | 49.64870 | 15.74771 | 30578 ft | 470 kts | 143° |
| 2026-05-06 18:48 | 49.62480 | 15.78234 | 30220 ft | 473 kts | 143° |
| 2026-05-06 18:48 | 49.60049 | 15.81749 | 29798 ft | 473 kts | 143° |
| 2026-05-06 18:48 | 49.57684 | 15.85165 | 29317 ft | 471 kts | 143° |
| 2026-05-06 18:48 | 49.55269 | 15.88651 | 28756 ft | 468 kts | 143° |
| 2026-05-06 18:49 | 49.52903 | 15.92065 | 28223 ft | 464 kts | 143° |
| 2026-05-06 18:49 | 49.50556 | 15.95446 | 27709 ft | 460 kts | 143° |
| 2026-05-06 18:49 | 49.48229 | 15.98790 | 27217 ft | 456 kts | 143° |
| 2026-05-06 18:49 | 49.45947 | 16.02064 | 26717 ft | 452 kts | 143° |
| 2026-05-06 18:50 | 49.43629 | 16.05386 | 26230 ft | 448 kts | 143° |
| 2026-05-06 18:50 | 49.41360 | 16.08632 | 25761 ft | 444 kts | 143° |
| 2026-05-06 18:50 | 49.39107 | 16.11851 | 25288 ft | 441 kts | 143° |
| 2026-05-06 18:50 | 49.36874 | 16.15037 | 24819 ft | 437 kts | 143° |
| 2026-05-06 18:51 | 49.34634 | 16.18228 | 24368 ft | 434 kts | 143° |
| 2026-05-06 18:51 | 49.32445 | 16.21321 | 23925 ft | 429 kts | 144° |
| 2026-05-06 18:51 | 49.30042 | 16.23925 | 23468 ft | 418 kts | 155° |
| 2026-05-06 18:51 | 49.27488 | 16.25999 | 22978 ft | 414 kts | 158° |
| 2026-05-06 18:52 | 49.24926 | 16.27957 | 22440 ft | 409 kts | 159° |
| 2026-05-06 18:52 | 49.22396 | 16.29859 | 21952 ft | 403 kts | 159° |
| 2026-05-06 18:52 | 49.19892 | 16.31727 | 21472 ft | 398 kts | 159° |
| 2026-05-06 18:52 | 49.17410 | 16.33568 | 20979 ft | 395 kts | 159° |
| 2026-05-06 18:53 | 49.14940 | 16.35396 | 20509 ft | 393 kts | 159° |
| 2026-05-06 18:53 | 49.12485 | 16.37208 | 20024 ft | 390 kts | 159° |
| 2026-05-06 18:53 | 49.10053 | 16.39001 | 19562 ft | 387 kts | 159° |
| 2026-05-06 18:53 | 49.07630 | 16.40785 | 19100 ft | 385 kts | 159° |
| 2026-05-06 18:54 | 49.05227 | 16.42552 | 18641 ft | 383 kts | 159° |
| 2026-05-06 18:54 | 49.02839 | 16.44307 | 18210 ft | 380 kts | 158° |
| 2026-05-06 18:54 | 49.00468 | 16.46047 | 17722 ft | 378 kts | 158° |
| 2026-05-06 18:54 | 48.98105 | 16.47778 | 17198 ft | 376 kts | 158° |
| 2026-05-06 18:55 | 48.95717 | 16.49526 | 16696 ft | 374 kts | 158° |
| 2026-05-06 18:55 | 48.93378 | 16.51237 | 16209 ft | 372 kts | 158° |
| 2026-05-06 18:55 | 48.91052 | 16.52936 | 15740 ft | 369 kts | 158° |
| 2026-05-06 18:55 | 48.88814 | 16.54570 | 15275 ft | 366 kts | 158° |
| 2026-05-06 18:56 | 48.86466 | 16.56282 | 14800 ft | 363 kts | 158° |
| 2026-05-06 18:56 | 48.84195 | 16.57936 | 14339 ft | 361 kts | 158° |
| 2026-05-06 18:56 | 48.81935 | 16.59581 | 13891 ft | 358 kts | 157° |
| 2026-05-06 18:56 | 48.79693 | 16.61207 | 13495 ft | 356 kts | 158° |
| 2026-05-06 18:57 | 48.77386 | 16.62463 | 13081 ft | 351 kts | 168° |
| 2026-05-06 18:57 | 48.75017 | 16.63288 | 12660 ft | 348 kts | 170° |
| 2026-05-06 18:57 | 48.72654 | 16.64050 | 12250 ft | 345 kts | 170° |
| 2026-05-06 18:57 | 48.70285 | 16.64816 | 11839 ft | 343 kts | 170° |